createdAt,value
2018-02-22T00:00:37.704Z,-1.00
2018-02-22T00:05:36.006Z,-0.90
2018-02-22T00:08:01.783Z,-0.97
2018-02-22T00:10:27.548Z,-1.16
2018-02-22T00:12:53.297Z,-1.06
2018-02-22T00:15:19.060Z,-0.90
2018-02-22T00:17:44.823Z,-0.98
2018-02-22T00:20:10.591Z,-1.02
2018-02-22T00:22:36.363Z,-0.92
2018-02-22T00:25:02.148Z,-0.86
2018-02-22T00:27:28.083Z,-0.85
2018-02-22T00:29:53.847Z,-0.81
2018-02-22T00:32:19.599Z,-0.86
2018-02-22T00:34:45.362Z,-0.91
2018-02-22T00:37:11.120Z,-0.92
2018-02-22T00:39:36.907Z,-0.87
2018-02-22T00:42:02.658Z,-0.82
2018-02-22T00:44:28.431Z,-0.89
2018-02-22T00:46:54.246Z,-0.95
2018-02-22T00:49:20.008Z,-0.95
2018-02-22T00:51:45.772Z,-1.07
2018-02-22T00:54:11.577Z,-1.02
2018-02-22T00:56:37.350Z,-0.89
2018-02-22T00:59:03.107Z,-0.82
2018-02-22T01:01:28.874Z,-0.70
2018-02-22T01:03:54.640Z,-0.73
2018-02-22T01:06:20.403Z,-0.83
2018-02-22T01:08:46.155Z,-0.76
2018-02-22T01:11:11.915Z,-0.70
2018-02-22T01:13:37.668Z,-0.65
2018-02-22T01:16:03.439Z,-0.81
2018-02-22T01:18:29.195Z,-0.76
2018-02-22T01:20:55.011Z,-0.81
2018-02-22T01:23:20.767Z,-0.86
2018-02-22T01:25:46.548Z,-0.91
2018-02-22T01:28:12.307Z,-0.79
2018-02-22T01:30:38.148Z,-0.64
2018-02-22T01:33:03.888Z,-0.62
2018-02-22T01:35:29.656Z,-0.66
2018-02-22T01:37:55.423Z,-0.70
2018-02-22T01:40:21.191Z,-0.73
2018-02-22T01:42:46.961Z,-0.61
2018-02-22T01:45:12.729Z,-0.52
2018-02-22T01:47:38.497Z,-0.49
2018-02-22T01:50:04.268Z,-0.53
2018-02-22T01:52:30.033Z,-0.61
2018-02-22T01:54:55.842Z,-0.53
2018-02-22T01:57:21.656Z,-0.47
2018-02-22T01:59:47.424Z,-0.50
2018-02-22T02:02:13.191Z,-0.49
2018-02-22T02:04:38.934Z,-0.50
2018-02-22T02:07:04.695Z,-0.51
2018-02-22T02:09:30.456Z,-0.50
2018-02-22T02:11:56.218Z,-0.49
2018-02-22T02:14:21.980Z,-0.43
2018-02-22T02:16:47.756Z,-0.46
2018-02-22T02:19:13.511Z,-0.51
2018-02-22T02:21:39.332Z,-0.52
2018-02-22T02:24:05.084Z,-0.42
2018-02-22T02:26:30.845Z,-0.42
2018-02-22T02:28:56.618Z,-0.44
2018-02-22T02:31:22.375Z,-0.58
2018-02-22T02:33:48.130Z,-0.56
2018-02-22T02:36:13.900Z,-0.57
2018-02-22T02:38:39.671Z,-0.45
2018-02-22T02:41:05.451Z,-0.43
2018-02-22T02:43:31.248Z,-0.49
2018-02-22T02:45:56.995Z,-0.52
2018-02-22T02:48:22.765Z,-0.53
2018-02-22T02:50:48.533Z,-0.50
2018-02-22T02:53:14.307Z,-0.45
2018-02-22T02:55:40.052Z,-0.36
2018-02-22T02:58:05.825Z,-0.29
2018-02-22T03:00:31.597Z,-0.30
2018-02-22T03:02:57.361Z,-0.31
2018-02-22T03:05:23.131Z,-0.25
2018-02-22T03:07:48.912Z,-0.38
2018-02-22T03:10:14.685Z,-0.31
2018-02-22T03:12:40.434Z,-0.27
2018-02-22T03:15:06.214Z,-0.26
2018-02-22T03:17:31.975Z,-0.22
2018-02-22T03:19:57.989Z,-0.26
2018-02-22T03:22:23.731Z,-0.37
2018-02-22T03:24:49.492Z,-0.43
2018-02-22T03:27:15.256Z,-0.46
2018-02-22T03:29:41.030Z,-0.43
2018-02-22T03:32:06.791Z,-0.34
2018-02-22T03:34:32.572Z,-0.46
2018-02-22T03:36:58.338Z,-0.47
2018-02-22T03:39:24.112Z,-0.45
2018-02-22T03:41:49.868Z,-0.45
2018-02-22T03:44:15.659Z,-0.40
2018-02-22T03:46:41.418Z,-0.46
2018-02-22T03:49:07.194Z,-0.47
2018-02-22T03:51:32.942Z,-0.40
2018-02-22T03:53:58.703Z,-0.31
2018-02-22T03:56:24.471Z,-0.25
2018-02-22T03:58:50.263Z,-0.16
2018-02-22T04:01:16.034Z,-0.33
2018-02-22T04:03:41.795Z,-0.33
2018-02-22T04:06:07.573Z,-0.21
2018-02-22T04:08:33.337Z,-0.30
2018-02-22T04:11:00.093Z,-0.34
2018-02-22T04:13:25.864Z,-0.35
2018-02-22T04:15:51.648Z,-0.34
2018-02-22T04:18:17.456Z,-0.34
2018-02-22T04:20:43.200Z,-0.24
2018-02-22T04:23:08.961Z,-0.28
2018-02-22T04:25:34.731Z,-0.16
2018-02-22T04:28:00.499Z,-0.13
2018-02-22T04:30:26.273Z,-0.10
2018-02-22T04:32:52.039Z,-0.14
2018-02-22T04:35:17.820Z,-0.09
2018-02-22T04:37:43.579Z,-0.08
2018-02-22T04:40:09.351Z,-0.06
2018-02-22T04:42:35.114Z,-0.09
2018-02-22T04:45:00.888Z,-0.08
2018-02-22T04:47:26.660Z,-0.12
2018-02-22T04:49:52.418Z,-0.13
2018-02-22T04:52:18.208Z,-0.08
2018-02-22T04:54:43.954Z,-0.21
2018-02-22T04:57:09.727Z,-0.31
2018-02-22T04:59:36.293Z,-0.32
2018-02-22T05:02:02.068Z,-0.30
2018-02-22T05:04:27.823Z,-0.31
2018-02-22T05:06:53.592Z,-0.29
2018-02-22T05:09:19.343Z,-0.26
2018-02-22T05:11:45.106Z,-0.23
2018-02-22T05:14:10.880Z,-0.13
2018-02-22T05:16:36.643Z,0.00
2018-02-22T05:19:02.398Z,-0.05
2018-02-22T05:21:28.151Z,-0.15
2018-02-22T05:23:53.908Z,-0.18
2018-02-22T05:26:19.676Z,-0.15
2018-02-22T05:28:45.418Z,-0.11
2018-02-22T05:31:11.179Z,-0.01
2018-02-22T05:33:36.935Z,0.02
2018-02-22T05:36:02.682Z,0.07
2018-02-22T05:38:28.450Z,-0.02
2018-02-22T05:40:54.194Z,0.02
2018-02-22T05:43:19.968Z,0.07
2018-02-22T05:45:45.712Z,-0.03
2018-02-22T05:48:11.472Z,-0.03
2018-02-22T05:50:37.216Z,-0.13
2018-02-22T05:53:02.972Z,-0.15
2018-02-22T05:55:28.699Z,-0.11
2018-02-22T05:57:54.471Z,0.03
2018-02-22T06:00:20.227Z,0.05
2018-02-22T06:02:45.975Z,0.09
2018-02-22T06:05:11.728Z,0.12
2018-02-22T06:07:37.487Z,0.14
2018-02-22T06:10:03.248Z,0.12
2018-02-22T06:12:29.011Z,0.12
2018-02-22T06:14:54.768Z,0.13
2018-02-22T06:17:20.523Z,0.15
2018-02-22T06:19:46.263Z,0.14
2018-02-22T06:22:12.012Z,0.16
2018-02-22T06:24:37.751Z,0.17
2018-02-22T06:27:03.491Z,0.16
2018-02-22T06:29:29.243Z,0.17
2018-02-22T06:31:55.006Z,0.18
2018-02-22T06:34:20.767Z,0.19
2018-02-22T06:36:46.524Z,0.20
2018-02-22T06:39:12.299Z,0.19
2018-02-22T06:41:38.044Z,0.19
2018-02-22T06:44:03.798Z,0.21
2018-02-22T06:46:29.544Z,0.23
2018-02-22T06:48:55.310Z,0.25
2018-02-22T06:51:21.064Z,0.27
2018-02-22T06:53:46.815Z,0.28
2018-02-22T06:56:12.556Z,0.28
2018-02-22T06:58:38.319Z,0.31
2018-02-22T07:01:04.090Z,0.28
2018-02-22T07:03:29.860Z,0.26
2018-02-22T07:05:55.640Z,0.32
2018-02-22T07:08:21.363Z,0.35
2018-02-22T07:10:47.139Z,0.37
2018-02-22T07:13:12.894Z,0.36
2018-02-22T07:15:38.655Z,0.33
2018-02-22T07:18:04.430Z,0.31
2018-02-22T07:20:30.197Z,0.34
2018-02-22T07:22:55.968Z,0.40
2018-02-22T07:25:21.739Z,0.40
2018-02-22T07:27:47.719Z,0.44
2018-02-22T07:30:13.496Z,0.46
2018-02-22T07:32:39.263Z,0.47
2018-02-22T07:35:05.054Z,0.47
2018-02-22T07:37:30.803Z,0.40
2018-02-22T07:39:56.568Z,0.42
2018-02-22T07:42:22.324Z,0.37
2018-02-22T07:44:48.084Z,0.40
2018-02-22T07:47:13.835Z,0.46
2018-02-22T07:49:39.599Z,0.56
2018-02-22T07:52:05.353Z,0.59
2018-02-22T07:54:31.124Z,0.63
2018-02-22T07:56:56.881Z,0.57
2018-02-22T07:59:22.646Z,0.63
2018-02-22T08:01:48.403Z,0.60
2018-02-22T08:04:14.146Z,0.57
2018-02-22T08:06:39.894Z,0.68
2018-02-22T08:09:05.652Z,0.69
2018-02-22T08:11:31.429Z,0.69
2018-02-22T08:13:57.190Z,0.77
2018-02-22T08:16:22.943Z,0.76
2018-02-22T08:18:48.693Z,0.85
2018-02-22T08:21:14.459Z,0.83
2018-02-22T08:23:40.219Z,0.81
2018-02-22T08:26:05.993Z,0.80
2018-02-22T08:28:31.740Z,0.78
2018-02-22T08:30:57.514Z,0.74
2018-02-22T08:33:23.272Z,0.80
2018-02-22T08:35:49.051Z,0.76
2018-02-22T08:38:14.875Z,0.71
2018-02-22T08:40:40.639Z,0.75
2018-02-22T08:43:06.399Z,0.88
2018-02-22T08:45:32.159Z,0.90
2018-02-22T08:47:57.939Z,0.87
2018-02-22T08:50:23.676Z,0.84
2018-02-22T08:52:49.428Z,0.85
2018-02-22T08:55:15.181Z,0.84
2018-02-22T08:57:40.951Z,0.93
2018-02-22T09:00:06.711Z,0.92
2018-02-22T09:02:32.478Z,0.92
2018-02-22T09:04:58.260Z,0.98
2018-02-22T09:07:24.028Z,0.93
2018-02-22T09:09:49.774Z,0.91
2018-02-22T09:12:15.527Z,0.93
2018-02-22T09:14:41.272Z,0.98
2018-02-22T09:17:07.011Z,1.03
2018-02-22T09:19:32.748Z,1.02
2018-02-22T09:21:58.488Z,1.09
2018-02-22T09:24:24.239Z,1.07
2018-02-22T09:26:50.007Z,1.11
2018-02-22T09:29:15.796Z,1.16
2018-02-22T09:31:41.544Z,1.19
2018-02-22T09:34:07.307Z,1.21
2018-02-22T09:36:33.123Z,1.22
2018-02-22T09:38:58.822Z,1.22
2018-02-22T09:41:24.569Z,1.15
2018-02-22T09:43:50.333Z,1.14
2018-02-22T09:46:16.102Z,1.12
2018-02-22T09:48:41.880Z,1.17
2018-02-22T09:51:07.640Z,1.09
2018-02-22T09:53:33.410Z,1.14
2018-02-22T09:55:59.163Z,1.25
2018-02-22T09:58:24.976Z,1.33
2018-02-22T10:00:50.782Z,1.32
2018-02-22T10:03:16.511Z,1.23
2018-02-22T10:05:42.269Z,1.25
2018-02-22T10:08:08.031Z,1.25
2018-02-22T10:10:33.796Z,1.29
2018-02-22T10:12:59.559Z,1.36
2018-02-22T10:15:25.316Z,1.44
2018-02-22T10:17:51.068Z,1.45
2018-02-22T10:20:16.820Z,1.53
2018-02-22T10:22:42.576Z,1.52
2018-02-22T10:25:08.346Z,1.49
2018-02-22T10:27:34.100Z,1.54
2018-02-22T10:29:59.855Z,1.57
2018-02-22T10:32:25.598Z,1.51
2018-02-22T10:34:51.358Z,1.55
2018-02-22T10:37:17.108Z,1.65
2018-02-22T10:39:43.127Z,1.74
2018-02-22T10:42:08.886Z,1.85
2018-02-22T10:44:34.623Z,1.85
2018-02-22T10:47:00.402Z,1.89
2018-02-22T10:49:26.158Z,1.82
2018-02-22T10:51:51.927Z,1.83
2018-02-22T10:54:17.682Z,1.75
2018-02-22T10:56:43.441Z,1.81
2018-02-22T10:59:09.215Z,1.86
2018-02-22T11:01:41.164Z,1.98
2018-02-22T11:04:06.905Z,1.78
2018-02-22T11:06:32.699Z,1.90
2018-02-22T11:08:58.462Z,1.75
2018-02-22T11:11:24.238Z,1.75
2018-02-22T11:13:49.996Z,1.74
2018-02-22T11:16:15.768Z,1.78
2018-02-22T11:18:41.563Z,1.73
2018-02-22T11:21:07.350Z,1.80
2018-02-22T11:23:33.123Z,1.91
2018-02-22T11:25:58.879Z,1.88
2018-02-22T11:28:24.645Z,1.89
2018-02-22T11:30:50.429Z,1.64
2018-02-22T11:33:16.203Z,1.70
2018-02-22T11:35:41.964Z,1.78
2018-02-22T11:38:07.750Z,1.66
2018-02-22T11:40:33.511Z,1.82
2018-02-22T11:42:59.301Z,1.68
2018-02-22T11:45:25.060Z,1.84
2018-02-22T11:47:50.836Z,2.10
2018-02-22T11:50:16.603Z,2.02
2018-02-22T11:52:42.378Z,1.92
2018-02-22T11:55:08.143Z,1.88
2018-02-22T11:57:33.923Z,1.77
2018-02-22T11:59:59.708Z,1.80
2018-02-22T12:02:25.483Z,1.84
2018-02-22T12:04:51.244Z,1.92
2018-02-22T12:07:17.024Z,1.92
2018-02-22T12:09:42.780Z,1.91
2018-02-22T12:12:08.556Z,1.79
2018-02-22T12:14:34.322Z,1.79
2018-02-22T12:17:00.092Z,1.81
2018-02-22T12:19:25.875Z,1.70
2018-02-22T12:21:51.637Z,1.61
2018-02-22T12:24:17.419Z,1.78
2018-02-22T12:26:43.171Z,1.77
2018-02-22T12:29:08.951Z,1.62
2018-02-22T12:31:34.703Z,1.71
2018-02-22T12:34:00.470Z,1.76
2018-02-22T12:36:26.226Z,1.71
2018-02-22T12:38:51.999Z,1.67
2018-02-22T12:41:17.768Z,1.66
2018-02-22T12:43:43.539Z,1.63
2018-02-22T12:46:09.303Z,1.71
2018-02-22T12:48:35.070Z,1.66
2018-02-22T12:51:00.839Z,1.54
2018-02-22T12:53:26.616Z,1.62
2018-02-22T12:55:52.386Z,1.67
2018-02-22T12:58:18.144Z,1.74
2018-02-22T13:00:44.071Z,1.80
2018-02-22T13:03:09.845Z,1.56
2018-02-22T13:05:35.621Z,1.52
2018-02-22T13:08:01.380Z,1.52
2018-02-22T13:10:27.166Z,1.70
2018-02-22T13:12:52.936Z,1.65
2018-02-22T13:15:18.744Z,1.63
2018-02-22T13:17:44.510Z,1.61
2018-02-22T13:20:10.284Z,1.69
2018-02-22T13:22:36.038Z,1.78
2018-02-22T13:25:01.802Z,1.78
2018-02-22T13:27:27.562Z,1.95
2018-02-22T13:29:53.335Z,1.99
2018-02-22T13:32:19.094Z,2.05
2018-02-22T13:34:44.871Z,1.91
2018-02-22T13:37:23.218Z,1.75
2018-02-22T13:39:48.987Z,1.70
2018-02-22T13:42:14.797Z,1.83
2018-02-22T13:44:52.957Z,2.00
2018-02-22T13:47:18.706Z,2.25
2018-02-22T13:52:43.447Z,2.43
2018-02-22T13:55:09.248Z,2.23
2018-02-22T13:57:35.003Z,2.16
2018-02-22T14:00:00.764Z,2.15
2018-02-22T14:02:26.546Z,2.24
2018-02-22T14:04:52.311Z,2.51
2018-02-22T14:07:18.085Z,2.57
2018-02-22T14:09:43.843Z,2.44
2018-02-22T14:12:09.621Z,2.24
2018-02-22T14:14:35.383Z,2.15
2018-02-22T14:17:01.152Z,2.15
2018-02-22T14:19:26.925Z,2.11
2018-02-22T14:21:52.703Z,2.27
2018-02-22T14:24:18.466Z,2.27
2018-02-22T14:26:44.236Z,2.17
2018-02-22T14:29:10.008Z,2.24
2018-02-22T14:31:35.796Z,2.36
2018-02-22T14:34:01.563Z,2.36
2018-02-22T14:36:27.326Z,2.32
2018-02-22T14:38:53.134Z,2.43
2018-02-22T14:41:18.859Z,2.32
2018-02-22T14:43:44.636Z,2.14
2018-02-22T14:46:10.420Z,2.04
2018-02-22T14:48:36.183Z,1.94
2018-02-22T14:51:01.927Z,1.88
2018-02-22T14:53:27.692Z,1.85
2018-02-22T14:55:53.480Z,1.82
2018-02-22T14:58:19.253Z,1.62
2018-02-22T15:00:51.183Z,1.66
2018-02-22T15:03:16.947Z,1.79
2018-02-22T15:05:42.726Z,1.69
2018-02-22T15:08:08.499Z,1.72
2018-02-22T15:10:34.256Z,1.65
2018-02-22T15:13:00.031Z,1.66
2018-02-22T15:15:25.790Z,1.73
2018-02-22T15:17:51.551Z,1.78
2018-02-22T15:20:17.304Z,1.87
2018-02-22T15:22:43.076Z,1.87
2018-02-22T15:25:08.851Z,1.93
2018-02-22T15:27:34.612Z,2.01
2018-02-22T15:30:00.377Z,2.02
2018-02-22T15:32:26.147Z,2.14
2018-02-22T15:34:51.903Z,2.18
2018-02-22T15:37:17.659Z,2.21
2018-02-22T15:39:43.444Z,2.24
2018-02-22T15:42:09.210Z,2.26
2018-02-22T15:44:34.991Z,2.15
2018-02-22T15:47:00.748Z,2.15
2018-02-22T15:49:26.528Z,2.10
2018-02-22T15:51:52.295Z,2.03
2018-02-22T15:54:18.088Z,1.96
2018-02-22T15:56:43.852Z,2.03
2018-02-22T15:59:09.628Z,2.00
2018-02-22T16:01:35.366Z,1.85
2018-02-22T16:04:01.164Z,1.77
2018-02-22T16:06:26.903Z,1.71
2018-02-22T16:08:52.680Z,1.62
2018-02-22T16:11:18.447Z,1.59
2018-02-22T16:13:44.235Z,1.53
2018-02-22T16:16:09.991Z,1.54
2018-02-22T16:18:35.764Z,1.52
2018-02-22T16:21:01.542Z,1.53
2018-02-22T16:23:27.336Z,1.50
2018-02-22T16:25:53.091Z,1.48
2018-02-22T16:28:18.847Z,1.39
2018-02-22T16:30:44.675Z,1.31
2018-02-22T16:33:10.460Z,1.20
2018-02-22T16:35:36.245Z,1.10
2018-02-22T16:38:02.003Z,1.03
2018-02-22T16:40:27.841Z,0.95
2018-02-22T16:42:53.551Z,0.94
2018-02-22T16:45:19.316Z,0.73
2018-02-22T16:47:45.076Z,0.66
2018-02-22T16:50:10.864Z,0.65
2018-02-22T16:52:36.623Z,0.50
2018-02-22T16:55:02.399Z,0.48
2018-02-22T16:57:28.156Z,0.49
2018-02-22T16:59:53.934Z,0.49
2018-02-22T17:02:19.691Z,0.42
2018-02-22T17:04:45.468Z,0.42
2018-02-22T17:07:11.238Z,0.43
2018-02-22T17:09:37.027Z,0.37
2018-02-22T17:12:02.777Z,0.31
2018-02-22T17:14:28.550Z,0.25
2018-02-22T17:16:54.332Z,0.25
2018-02-22T17:19:20.096Z,0.19
2018-02-22T17:21:45.876Z,0.17
2018-02-22T17:24:11.640Z,0.17
2018-02-22T17:26:43.486Z,0.11
2018-02-22T17:29:15.580Z,0.07
2018-02-22T17:31:47.463Z,0.04
2018-02-22T17:34:13.292Z,-0.03
2018-02-22T17:36:44.995Z,-0.08
2018-02-22T17:39:14.740Z,-0.06
2018-02-22T17:41:41.381Z,-0.04
2018-02-22T17:44:07.167Z,0.01
2018-02-22T17:46:32.943Z,0.07
2018-02-22T17:48:58.703Z,0.12
2018-02-22T17:51:24.477Z,0.15
2018-02-22T17:53:51.273Z,0.24
2018-02-22T17:56:17.119Z,0.20
2018-02-22T17:58:42.915Z,0.20
2018-02-22T18:01:09.055Z,0.31
2018-02-22T18:03:34.860Z,0.33
2018-02-22T18:06:01.419Z,0.43
2018-02-22T18:08:27.202Z,0.38
2018-02-22T18:10:52.989Z,0.39
2018-02-22T18:13:18.751Z,0.38
2018-02-22T18:15:44.544Z,0.40
2018-02-22T18:18:13.155Z,0.32
2018-02-22T18:20:38.984Z,0.39
2018-02-22T18:23:04.763Z,0.31
2018-02-22T18:25:30.555Z,0.30
2018-02-22T18:27:56.331Z,0.28
2018-02-22T18:30:22.178Z,0.33
2018-02-22T18:32:47.963Z,0.20
2018-02-22T18:35:13.829Z,0.17
2018-02-22T18:37:45.763Z,0.22
2018-02-22T18:40:17.592Z,0.16
2018-02-22T18:42:49.299Z,0.13
2018-02-22T18:45:15.196Z,0.15
2018-02-22T18:47:41.082Z,0.01
2018-02-22T18:50:06.843Z,-0.12
2018-02-22T18:52:32.608Z,-0.18
2018-02-22T18:54:58.372Z,-0.18
2018-02-22T18:57:24.164Z,-0.24
2018-02-22T18:59:49.932Z,-0.29
2018-02-22T19:02:15.706Z,-0.35
2018-02-22T19:04:41.461Z,-0.39
2018-02-22T19:07:07.244Z,-0.43
2018-02-22T19:09:33.005Z,-0.46
2018-02-22T19:11:58.796Z,-0.54
2018-02-22T19:14:24.552Z,-0.58
2018-02-22T19:16:50.314Z,-0.61
2018-02-22T19:19:16.095Z,-0.67
2018-02-22T19:21:41.839Z,-0.69
2018-02-22T19:24:07.616Z,-0.80
2018-02-22T19:26:33.384Z,-0.86
2018-02-22T19:28:59.154Z,-0.96
2018-02-22T19:31:24.931Z,-0.92
2018-02-22T19:33:50.699Z,-0.96
2018-02-22T19:36:16.706Z,-0.92
2018-02-22T19:38:42.583Z,-0.92
2018-02-22T19:41:08.560Z,-0.95
2018-02-22T19:43:34.528Z,-0.99
2018-02-22T19:46:00.372Z,-1.06
2018-02-22T19:48:26.473Z,-1.01
2018-02-22T19:50:52.419Z,-1.12
2018-02-22T19:53:18.308Z,-1.02
2018-02-22T19:55:44.072Z,-0.99
2018-02-22T19:58:09.846Z,-1.01
2018-02-22T20:00:35.642Z,-1.05
2018-02-22T20:03:01.745Z,-1.04
2018-02-22T20:05:27.532Z,-1.00
2018-02-22T20:07:53.301Z,-1.00
2018-02-22T20:10:19.080Z,-1.02
2018-02-22T20:12:44.845Z,-1.00
2018-02-22T20:15:10.619Z,-1.07
2018-02-22T20:17:36.379Z,-1.05
2018-02-22T20:20:02.143Z,-1.10
2018-02-22T20:22:27.916Z,-0.97
2018-02-22T20:24:53.793Z,-1.02
2018-02-22T20:27:19.547Z,-1.01
2018-02-22T20:29:45.480Z,-1.00
2018-02-22T20:32:11.282Z,-1.04
2018-02-22T20:34:37.048Z,-1.07
2018-02-22T20:37:03.202Z,-1.08
2018-02-22T20:39:29.251Z,-1.15
2018-02-22T20:41:55.298Z,-1.16
2018-02-22T20:44:21.602Z,-1.09
2018-02-22T20:46:47.617Z,-1.18
2018-02-22T20:49:14.147Z,-1.26
2018-02-22T20:51:41.098Z,-1.17
2018-02-22T20:54:07.242Z,-1.29
2018-02-22T20:56:33.211Z,-1.28
2018-02-22T20:58:58.992Z,-1.23
2018-02-22T21:01:24.801Z,-1.19
2018-02-22T21:03:50.571Z,-1.21
2018-02-22T21:06:16.344Z,-1.21
2018-02-22T21:08:42.103Z,-1.19
2018-02-22T21:11:07.880Z,-1.24
2018-02-22T21:13:33.630Z,-1.20
2018-02-22T21:16:01.002Z,-1.17
2018-02-22T21:18:26.978Z,-1.10
2018-02-22T21:20:52.769Z,-1.03
2018-02-22T21:23:18.536Z,-0.98
2018-02-22T21:25:44.309Z,-0.87
2018-02-22T21:28:10.068Z,-0.84
2018-02-22T21:30:36.210Z,-0.82
2018-02-22T21:33:02.000Z,-0.76
2018-02-22T21:35:27.927Z,-0.75
2018-02-22T21:37:53.683Z,-0.71
2018-02-22T21:40:19.525Z,-0.62
2018-02-22T21:42:45.329Z,-0.59
2018-02-22T21:45:11.072Z,-0.56
2018-02-22T21:47:36.822Z,-0.49
2018-02-22T21:50:02.587Z,-0.45
2018-02-22T21:52:28.364Z,-0.40
2018-02-22T21:54:54.263Z,-0.36
2018-02-22T21:57:20.031Z,-0.36
2018-02-22T21:59:45.803Z,-0.30
2018-02-22T22:02:11.579Z,-0.28
2018-02-22T22:04:37.331Z,-0.21
2018-02-22T22:07:03.108Z,-0.21
2018-02-22T22:09:29.852Z,-0.18
2018-02-22T22:11:55.615Z,-0.14
2018-02-22T22:14:21.418Z,-0.12
2018-02-22T22:16:47.230Z,-0.11
2018-02-22T22:19:12.990Z,-0.08
2018-02-22T22:21:38.759Z,-0.07
2018-02-22T22:24:04.512Z,-0.04
2018-02-22T22:26:30.262Z,-0.02
2018-02-22T22:28:56.040Z,0.01
2018-02-22T22:31:21.787Z,0.03
2018-02-22T22:33:47.560Z,0.05
2018-02-22T22:36:13.323Z,0.07
2018-02-22T22:38:39.090Z,0.07
2018-02-22T22:41:04.869Z,0.07
2018-02-22T22:43:30.657Z,0.08
2018-02-22T22:45:56.503Z,0.09
2018-02-22T22:48:22.298Z,0.12
2018-02-22T22:50:48.060Z,0.14
2018-02-22T22:53:13.841Z,0.12
2018-02-22T22:55:39.600Z,0.15
2018-02-22T22:58:05.411Z,0.20
2018-02-22T23:00:31.303Z,0.15
2018-02-22T23:02:57.107Z,0.14
2018-02-22T23:05:22.869Z,0.16
2018-02-22T23:07:48.622Z,0.18
2018-02-22T23:10:14.387Z,0.14
2018-02-22T23:12:40.157Z,0.17
2018-02-22T23:15:05.938Z,0.17
2018-02-22T23:17:31.719Z,0.13
2018-02-22T23:19:57.531Z,0.14
2018-02-22T23:22:23.440Z,0.10
2018-02-22T23:24:49.192Z,0.05
2018-02-22T23:27:14.965Z,0.03
2018-02-22T23:29:40.735Z,0.01
2018-02-22T23:32:06.500Z,0.03
2018-02-22T23:34:32.311Z,0.04
2018-02-22T23:36:58.098Z,0.08
2018-02-22T23:39:23.932Z,0.07
2018-02-22T23:41:55.987Z,0.05
2018-02-22T23:44:21.755Z,0.09
2018-02-22T23:46:47.528Z,0.11
2018-02-22T23:49:13.304Z,0.14
2018-02-22T23:51:39.073Z,0.13
2018-02-22T23:54:04.862Z,0.14
2018-02-22T23:56:30.725Z,0.15
2018-02-22T23:58:56.459Z,0.12
